Time;durP1;ratioP1;P1;durP2;ratioP2;P2;SDS_P1;SDS_P2;PMS_P1;PMS_P2;Temp;Humidity;BMP_temperature;BMP_pressure;BME280_temperature;BME280_humidity;BME280_pressure;Samples;Min_cycle;Max_cycle;Signal;HPM_P1;HPM_P2
2022/05/14 00:01:20;;;;;;;14.10;10.02;;;;;;;;;;5036663;28;20201;-58
2022/05/14 00:03:48;;;;;;;12.57;10.00;;;;;;;;;;5036558;28;20228;-58
2022/05/14 00:06:18;;;;;;;13.88;9.73;;;;;;;;;;5036625;28;20232;-58
2022/05/14 00:08:45;;;;;;;13.57;10.30;;;;;;;;;;5036671;28;20200;-58
2022/05/14 00:14:00;;;;;;;14.30;10.55;;;;;;;;;;5036439;28;20204;-57
2022/05/14 00:16:27;;;;;;;14.57;9.57;;;;;;;;;;5036588;28;20200;-58
2022/05/14 00:18:54;;;;;;;15.00;10.20;;;;;;;;;;5036338;28;20585;-59
2022/05/14 00:21:22;;;;;;;13.50;9.80;;;;;;;;;;5036235;28;20211;-58
2022/05/14 00:23:49;;;;;;;12.35;9.77;;;;;;;;;;5036418;28;20726;-57
2022/05/14 00:26:16;;;;;;;11.32;8.98;;;;;;;;;;5036151;28;20266;-58
2022/05/14 00:28:43;;;;;;;11.02;9.07;;;;;;;;;;5036299;28;20291;-58
2022/05/14 00:31:10;;;;;;;11.77;10.00;;;;;;;;;;5036084;28;20212;-58
2022/05/14 00:33:38;;;;;;;11.93;9.93;;;;;;;;;;5034353;28;20247;-57
2022/05/14 00:36:05;;;;;;;15.93;10.32;;;;;;;;;;5035787;28;20651;-58
2022/05/14 00:38:32;;;;;;;14.75;10.50;;;;;;;;;;5035681;28;20631;-58
2022/05/14 00:41:03;;;;;;;12.07;10.70;;;;;;;;;;5036136;28;20196;-57
2022/05/14 00:43:32;;;;;;;18.17;10.82;;;;;;;;;;5035826;28;20224;-57
2022/05/14 00:46:15;;;;;;;15.05;12.43;;;;;;;;;;5035783;28;20209;-58
2022/05/14 00:48:43;;;;;;;15.20;12.20;;;;;;;;;;5034814;28;20713;-58
2022/05/14 00:51:19;;;;;;;13.80;11.68;;;;;;;;;;5035165;28;20288;-58
2022/05/14 00:53:51;;;;;;;14.30;11.48;;;;;;;;;;5035440;28;20188;-58
2022/05/14 00:56:23;;;;;;;16.95;11.57;;;;;;;;;;5035065;28;20220;-58
2022/05/14 00:59:07;;;;;;;13.85;11.10;;;;;;;;;;5018709;28;20209;-58
2022/05/14 01:01:36;;;;;;;16.40;11.25;;;;;;;;;;5034382;28;20209;-58
2022/05/14 01:04:04;;;;;;;13.85;10.27;;;;;;;;;;5035205;28;20675;-58
2022/05/14 01:06:33;;;;;;;13.40;10.02;;;;;;;;;;5035462;28;20259;-58
2022/05/14 01:09:04;;;;;;;12.45;9.80;;;;;;;;;;5002152;28;20659;-58
2022/05/14 01:11:34;;;;;;;17.00;9.00;;;;;;;;;;5034465;28;20651;-58
2022/05/14 01:14:01;;;;;;;10.05;8.73;;;;;;;;;;5034459;28;20205;-57
2022/05/14 01:16:31;;;;;;;9.05;7.68;;;;;;;;;;5034417;28;20201;-58
2022/05/14 01:18:59;;;;;;;11.02;8.10;;;;;;;;;;5034385;28;20211;-57
2022/05/14 01:21:51;;;;;;;11.93;7.75;;;;;;;;;;5034534;28;20259;-57
2022/05/14 01:27:37;;;;;;;13.00;8.40;;;;;;;;;;5020894;28;20211;-58
2022/05/14 01:30:05;;;;;;;12.02;8.07;;;;;;;;;;5035075;28;20204;-57
2022/05/14 01:32:32;;;;;;;10.63;8.40;;;;;;;;;;5034225;28;20200;-57
2022/05/14 01:34:59;;;;;;;12.32;8.05;;;;;;;;;;5018200;28;20216;-58
2022/05/14 01:37:28;;;;;;;10.38;7.78;;;;;;;;;;5033845;28;20651;-58
2022/05/14 01:39:55;;;;;;;12.68;8.02;;;;;;;;;;5034140;28;20204;-57
2022/05/14 01:42:22;;;;;;;8.98;7.22;;;;;;;;;;5034624;28;20562;-58
2022/05/14 01:44:49;;;;;;;9.63;7.70;;;;;;;;;;5033654;28;20224;-58
2022/05/14 01:47:16;;;;;;;11.65;7.40;;;;;;;;;;5034480;28;20228;-59
2022/05/14 01:49:43;;;;;;;7.93;7.13;;;;;;;;;;5034026;28;20266;-58
2022/05/14 01:52:11;;;;;;;12.30;7.85;;;;;;;;;;5033856;28;20228;-58
2022/05/14 01:54:38;;;;;;;11.10;7.70;;;;;;;;;;5033852;28;20636;-57
2022/05/14 01:57:05;;;;;;;14.35;7.32;;;;;;;;;;5034822;28;20208;-58
2022/05/14 01:59:32;;;;;;;11.60;7.70;;;;;;;;;;5033456;28;20232;-58
2022/05/14 02:02:00;;;;;;;11.35;7.63;;;;;;;;;;5033734;28;20247;-58
2022/05/14 02:04:28;;;;;;;10.80;7.15;;;;;;;;;;5033432;28;20228;-58
2022/05/14 02:06:56;;;;;;;14.95;8.52;;;;;;;;;;5033505;28;20216;-58
2022/05/14 02:09:24;;;;;;;9.95;7.75;;;;;;;;;;5033586;28;20215;-56
2022/05/14 02:11:56;;;;;;;9.60;7.80;;;;;;;;;;5033350;28;20547;-58
2022/05/14 02:14:28;;;;;;;12.10;7.70;;;;;;;;;;5033557;28;20211;-53
2022/05/14 02:16:56;;;;;;;12.05;8.15;;;;;;;;;;5033772;28;20196;-57
2022/05/14 02:19:24;;;;;;;12.10;7.68;;;;;;;;;;5033275;28;20591;-57
2022/05/14 02:21:51;;;;;;;10.98;7.80;;;;;;;;;;5034197;28;20213;-58
2022/05/14 02:24:18;;;;;;;10.15;7.50;;;;;;;;;;5033096;28;20623;-58
2022/05/14 02:26:45;;;;;;;13.10;7.88;;;;;;;;;;5033124;28;20201;-58
2022/05/14 02:29:12;;;;;;;11.77;8.10;;;;;;;;;;5033496;28;20223;-58
2022/05/14 02:31:39;;;;;;;11.70;8.02;;;;;;;;;;5033281;28;20205;-58
2022/05/14 02:34:06;;;;;;;9.15;7.63;;;;;;;;;;5033944;28;20212;-57
2022/05/14 02:36:33;;;;;;;11.98;7.78;;;;;;;;;;5033160;28;20204;-58
2022/05/14 02:39:00;;;;;;;9.98;7.72;;;;;;;;;;5033840;28;20607;-59
2022/05/14 02:41:27;;;;;;;10.65;7.55;;;;;;;;;;5034247;28;20200;-59
2022/05/14 02:43:54;;;;;;;10.57;8.00;;;;;;;;;;5034232;28;20314;-59
2022/05/14 02:46:22;;;;;;;9.40;7.20;;;;;;;;;;5030977;28;20197;-61
2022/05/14 02:48:50;;;;;;;10.00;8.13;;;;;;;;;;5024111;28;20714;-58
2022/05/14 02:51:17;;;;;;;10.73;7.97;;;;;;;;;;5046442;28;20237;-58
2022/05/14 02:53:44;;;;;;;11.50;8.00;;;;;;;;;;5022557;28;20671;-59
2022/05/14 02:56:11;;;;;;;10.45;8.23;;;;;;;;;;5030301;28;20209;-59
2022/05/14 03:01:24;;;;;;;12.07;8.32;;;;;;;;;;5033968;28;20199;-59
2022/05/14 03:03:52;;;;;;;12.32;8.93;;;;;;;;;;5035981;28;20555;-57
2022/05/14 03:06:19;;;;;;;12.32;8.07;;;;;;;;;;5035190;28;20196;-57
2022/05/14 03:08:47;;;;;;;17.05;8.95;;;;;;;;;;5035084;28;20521;-58
2022/05/14 03:11:14;;;;;;;11.55;8.15;;;;;;;;;;5035178;28;20639;-59
2022/05/14 03:13:41;;;;;;;10.38;7.78;;;;;;;;;;5036294;28;20654;-59
2022/05/14 03:16:08;;;;;;;11.13;7.78;;;;;;;;;;5037510;28;20212;-58
2022/05/14 03:18:35;;;;;;;9.48;7.55;;;;;;;;;;5036566;28;20201;-57
2022/05/14 03:21:02;;;;;;;12.02;8.20;;;;;;;;;;5037161;28;20227;-58
2022/05/14 03:23:30;;;;;;;9.90;7.75;;;;;;;;;;5037331;28;20271;-58
2022/05/14 03:25:57;;;;;;;12.63;7.90;;;;;;;;;;5036205;28;20535;-58
2022/05/14 03:28:24;;;;;;;11.75;7.63;;;;;;;;;;5037216;28;20651;-57
2022/05/14 03:30:51;;;;;;;13.63;8.20;;;;;;;;;;5036078;28;20694;-57
2022/05/14 03:33:19;;;;;;;15.60;8.23;;;;;;;;;;5036020;28;20631;-58
2022/05/14 03:35:46;;;;;;;11.00;7.72;;;;;;;;;;5035594;28;20201;-58
2022/05/14 03:38:13;;;;;;;10.65;7.70;;;;;;;;;;5036985;28;20201;-58
2022/05/14 03:40:40;;;;;;;11.32;7.43;;;;;;;;;;5035919;28;20660;-57
2022/05/14 03:43:07;;;;;;;13.90;7.90;;;;;;;;;;5036493;28;20263;-57
2022/05/14 03:45:34;;;;;;;11.52;7.88;;;;;;;;;;5036710;28;20663;-59
2022/05/14 03:48:01;;;;;;;14.05;7.80;;;;;;;;;;5036051;28;20205;-59
2022/05/14 03:50:28;;;;;;;8.70;7.25;;;;;;;;;;5036871;28;20266;-57
2022/05/14 03:52:57;;;;;;;17.83;8.18;;;;;;;;;;5035710;28;20228;-58
2022/05/14 03:55:24;;;;;;;12.98;7.85;;;;;;;;;;5036325;28;20686;-58
2022/05/14 03:57:51;;;;;;;10.52;7.53;;;;;;;;;;5036459;28;20251;-58
2022/05/14 04:00:19;;;;;;;10.98;7.95;;;;;;;;;;5035478;28;20220;-55
2022/05/14 04:02:47;;;;;;;10.10;7.70;;;;;;;;;;5035553;28;20212;-58
2022/05/14 04:05:15;;;;;;;9.23;7.45;;;;;;;;;;5035613;28;20541;-57
2022/05/14 04:07:44;;;;;;;12.25;7.72;;;;;;;;;;5035400;28;20197;-58
2022/05/14 04:10:16;;;;;;;12.00;6.88;;;;;;;;;;5035728;28;20200;-58
2022/05/14 04:12:43;;;;;;;10.60;7.32;;;;;;;;;;5036111;28;20189;-59
2022/05/14 04:15:13;;;;;;;11.45;6.93;;;;;;;;;;5035217;28;20663;-56
2022/05/14 04:17:41;;;;;;;12.20;7.20;;;;;;;;;;5035558;28;20284;-58
2022/05/14 04:20:08;;;;;;;11.98;7.53;;;;;;;;;;5035509;28;20535;-57
2022/05/14 04:22:36;;;;;;;13.05;7.30;;;;;;;;;;5036137;28;20201;-57
2022/05/14 04:25:04;;;;;;;11.82;7.07;;;;;;;;;;5036167;28;20263;-58
2022/05/14 04:27:32;;;;;;;9.93;6.50;;;;;;;;;;5035237;28;20519;-58
2022/05/14 04:29:59;;;;;;;9.25;7.30;;;;;;;;;;5035238;28;20205;-58
2022/05/14 04:32:27;;;;;;;10.52;7.07;;;;;;;;;;5035182;28;20295;-58
2022/05/14 04:34:56;;;;;;;14.50;7.32;;;;;;;;;;5035408;28;20208;-58
2022/05/14 04:37:23;;;;;;;15.57;7.55;;;;;;;;;;5036451;28;20216;-58
2022/05/14 04:39:52;;;;;;;11.45;7.07;;;;;;;;;;5034968;28;20632;-58
2022/05/14 04:42:19;;;;;;;13.68;7.10;;;;;;;;;;5034862;28;20213;-58
2022/05/14 04:45:08;;;;;;;9.43;6.75;;;;;;;;;;5034928;28;20228;-58
2022/05/14 04:47:38;;;;;;;11.80;7.35;;;;;;;;;;5035983;28;20196;-59
2022/05/14 04:50:06;;;;;;;11.55;7.50;;;;;;;;;;5035048;28;20304;-59
2022/05/14 04:52:35;;;;;;;10.55;6.90;;;;;;;;;;5041199;28;20243;-58
2022/05/14 04:55:03;;;;;;;11.43;6.93;;;;;;;;;;5045362;28;20582;-58
2022/05/14 04:57:30;;;;;;;10.73;7.40;;;;;;;;;;5041082;28;20559;-57
2022/05/14 04:59:58;;;;;;;10.05;6.95;;;;;;;;;;5041058;28;20224;-58
2022/05/14 05:05:12;;;;;;;14.57;8.02;;;;;;;;;;5029564;28;20248;-60
2022/05/14 05:07:40;;;;;;;11.93;7.15;;;;;;;;;;5023384;28;20605;-59
2022/05/14 05:10:08;;;;;;;10.48;6.75;;;;;;;;;;5029518;28;20228;-58
2022/05/14 05:12:35;;;;;;;10.57;7.07;;;;;;;;;;5033075;28;20243;-59
2022/05/14 05:15:03;;;;;;;11.05;5.95;;;;;;;;;;5031833;28;20220;-57
2022/05/14 05:17:30;;;;;;;9.95;6.80;;;;;;;;;;5032542;28;20229;-59
2022/05/14 05:19:57;;;;;;;11.85;7.10;;;;;;;;;;5032351;28;20555;-60
2022/05/14 05:22:24;;;;;;;8.70;7.25;;;;;;;;;;5031877;28;20555;-60
2022/05/14 05:24:51;;;;;;;12.13;7.60;;;;;;;;;;5032936;28;20225;-59
2022/05/14 05:27:18;;;;;;;13.85;6.88;;;;;;;;;;5032932;28;20231;-59
2022/05/14 05:29:45;;;;;;;10.25;6.95;;;;;;;;;;5033525;28;20286;-59
2022/05/14 05:32:12;;;;;;;9.10;6.60;;;;;;;;;;5034050;28;20227;-58
2022/05/14 05:34:39;;;;;;;9.93;6.25;;;;;;;;;;5028010;28;20240;-55
2022/05/14 05:37:06;;;;;;;11.65;6.68;;;;;;;;;;5036236;28;20493;-52
2022/05/14 05:39:33;;;;;;;11.13;7.47;;;;;;;;;;5054271;28;20693;-54
2022/05/14 05:42:00;;;;;;;9.52;6.30;;;;;;;;;;5053802;28;20231;-56
2022/05/14 05:44:27;;;;;;;12.35;6.57;;;;;;;;;;5054192;28;20240;-56
2022/05/14 05:46:55;;;;;;;15.57;7.20;;;;;;;;;;5053736;28;20554;-59
2022/05/14 05:49:22;;;;;;;11.18;6.72;;;;;;;;;;5035351;28;20737;-56
2022/05/14 05:51:49;;;;;;;12.52;6.25;;;;;;;;;;5031249;28;20681;-58
2022/05/14 05:57:03;;;;;;;12.75;6.97;;;;;;;;;;5033641;28;20236;-59
2022/05/14 05:59:33;;;;;;;13.13;7.22;;;;;;;;;;5033936;28;20670;-59
2022/05/14 06:01:59;;;;;;;12.73;6.82;;;;;;;;;;5033472;28;20641;-60
2022/05/14 06:04:27;;;;;;;10.00;6.57;;;;;;;;;;5033908;28;20683;-60
2022/05/14 06:06:54;;;;;;;11.18;5.93;;;;;;;;;;5033186;28;20232;-59
2022/05/14 06:09:24;;;;;;;10.93;6.07;;;;;;;;;;5034043;28;20319;-60
2022/05/14 06:11:51;;;;;;;9.25;6.40;;;;;;;;;;5033515;28;20236;-58
2022/05/14 06:14:18;;;;;;;8.63;6.32;;;;;;;;;;5034031;28;20229;-59
2022/05/14 06:16:45;;;;;;;8.57;6.32;;;;;;;;;;5033856;28;20282;-59
2022/05/14 06:19:12;;;;;;;10.20;6.78;;;;;;;;;;5033912;28;20275;-59
2022/05/14 06:21:39;;;;;;;20.85;6.72;;;;;;;;;;5033550;28;20228;-59
2022/05/14 06:24:08;;;;;;;9.90;6.22;;;;;;;;;;5033769;28;20229;-59
2022/05/14 06:26:35;;;;;;;11.57;6.80;;;;;;;;;;5033836;28;20244;-59
2022/05/14 06:29:02;;;;;;;11.80;6.07;;;;;;;;;;5033490;28;20287;-60
2022/05/14 06:31:28;;;;;;;8.35;6.45;;;;;;;;;;5034810;28;20229;-60
2022/05/14 06:33:56;;;;;;;10.85;6.45;;;;;;;;;;5037358;28;20224;-60
2022/05/14 06:36:23;;;;;;;14.70;6.45;;;;;;;;;;5033741;28;20216;-58
2022/05/14 06:38:50;;;;;;;16.05;6.70;;;;;;;;;;5033965;28;20962;-58
2022/05/14 06:41:17;;;;;;;12.57;6.15;;;;;;;;;;5027762;28;20229;-58
2022/05/14 06:43:44;;;;;;;9.18;6.22;;;;;;;;;;5029628;28;20217;-58
2022/05/14 06:46:11;;;;;;;11.65;6.55;;;;;;;;;;5036330;28;20364;-59
2022/05/14 06:48:39;;;;;;;11.40;5.85;;;;;;;;;;5028578;28;20232;-60
2022/05/14 06:51:08;;;;;;;9.30;6.38;;;;;;;;;;5022811;28;20229;-60
2022/05/14 06:53:38;;;;;;;9.10;5.82;;;;;;;;;;5017463;28;20687;-59
2022/05/14 06:56:06;;;;;;;9.80;6.07;;;;;;;;;;5017207;28;20240;-60
2022/05/14 06:58:37;;;;;;;10.80;6.50;;;;;;;;;;5017107;28;20687;-60
2022/05/14 07:01:05;;;;;;;8.95;5.30;;;;;;;;;;5014431;28;20233;-59
2022/05/14 07:09:12;;;;;;;7.60;4.78;;;;;;;;;;5056595;28;20224;-59
2022/05/14 07:11:42;;;;;;;9.75;5.05;;;;;;;;;;5056815;28;20739;-60
2022/05/14 07:14:10;;;;;;;8.13;4.30;;;;;;;;;;5056672;28;20228;-59
2022/05/14 07:16:38;;;;;;;10.35;4.80;;;;;;;;;;5056691;28;20239;-60
2022/05/14 07:19:06;;;;;;;11.10;4.57;;;;;;;;;;5056417;28;20338;-59
2022/05/14 07:21:38;;;;;;;10.43;4.50;;;;;;;;;;5056280;28;20301;-57
2022/05/14 07:24:07;;;;;;;10.43;4.57;;;;;;;;;;5056345;28;20724;-59
2022/05/14 07:26:36;;;;;;;5.60;3.28;;;;;;;;;;5056290;28;20240;-61
2022/05/14 07:29:11;;;;;;;18.60;4.10;;;;;;;;;;5056363;28;20236;-58
2022/05/14 07:31:39;;;;;;;42.38;4.28;;;;;;;;;;5056592;28;20223;-60
2022/05/14 07:34:07;;;;;;;3.65;2.30;;;;;;;;;;5056037;28;20228;-58
2022/05/14 07:36:41;;;;;;;6.90;2.90;;;;;;;;;;5048979;28;20251;-60
2022/05/14 07:39:08;;;;;;;6.30;2.85;;;;;;;;;;5034386;28;20581;-59
2022/05/14 07:41:38;;;;;;;9.75;2.85;;;;;;;;;;5036323;28;20244;-58
2022/05/14 07:44:06;;;;;;;8.63;3.33;;;;;;;;;;5030837;28;20229;-60
2022/05/14 07:46:35;;;;;;;5.88;2.38;;;;;;;;;;5028710;28;20575;-59
2022/05/14 07:49:05;;;;;;;7.03;2.55;;;;;;;;;;5035691;28;20224;-60
2022/05/14 07:51:34;;;;;;;6.90;2.45;;;;;;;;;;5035919;28;20244;-59
2022/05/14 07:54:01;;;;;;;7.05;2.85;;;;;;;;;;5035910;28;20243;-60
2022/05/14 07:56:28;;;;;;;8.77;2.42;;;;;;;;;;5035991;28;20315;-58
2022/05/14 07:58:55;;;;;;;5.13;2.00;;;;;;;;;;5035650;28;20545;-58
2022/05/14 08:01:22;;;;;;;8.35;3.10;;;;;;;;;;5035784;28;20679;-60
2022/05/14 08:03:49;;;;;;;9.80;3.00;;;;;;;;;;5048313;28;20224;-57
2022/05/14 08:06:17;;;;;;;11.13;2.65;;;;;;;;;;5055262;28;20323;-59
2022/05/14 08:08:44;;;;;;;10.98;2.90;;;;;;;;;;5055722;28;20258;-60
2022/05/14 08:11:11;;;;;;;5.03;2.30;;;;;;;;;;5056488;28;20212;-60
2022/05/14 08:13:38;;;;;;;8.07;2.85;;;;;;;;;;5056285;28;20235;-60
2022/05/14 08:16:05;;;;;;;11.43;2.80;;;;;;;;;;5056342;28;20261;-60
2022/05/14 08:18:33;;;;;;;7.63;2.45;;;;;;;;;;5056386;28;20599;-60
2022/05/14 08:24:29;;;;;;;6.80;2.33;;;;;;;;;;5055875;28;20303;-60
2022/05/14 08:26:32;;;;;;;5.53;2.40;;;;;;;;;;5056191;28;20242;-60
2022/05/14 08:28:59;;;;;;;7.65;2.58;;;;;;;;;;5055788;28;20540;-60
2022/05/14 08:31:26;;;;;;;7.93;2.50;;;;;;;;;;5055999;28;20218;-60
2022/05/14 08:33:53;;;;;;;7.15;2.88;;;;;;;;;;5055866;28;20204;-59
2022/05/14 08:36:20;;;;;;;7.28;2.33;;;;;;;;;;5055987;28;20212;-60
2022/05/14 08:38:47;;;;;;;7.70;2.35;;;;;;;;;;5056295;28;20200;-60
2022/05/14 08:41:15;;;;;;;6.47;2.20;;;;;;;;;;5055688;28;20259;-60
2022/05/14 08:43:47;;;;;;;7.55;2.10;;;;;;;;;;5055751;28;20211;-59
2022/05/14 08:46:18;;;;;;;5.25;2.50;;;;;;;;;;5055786;28;20728;-59
2022/05/14 08:48:51;;;;;;;7.15;2.78;;;;;;;;;;5052158;28;20654;-59
2022/05/14 08:51:22;;;;;;;7.10;2.47;;;;;;;;;;5024871;28;20573;-60
2022/05/14 08:53:49;;;;;;;7.68;3.30;;;;;;;;;;5063721;28;20536;-59
2022/05/14 08:56:22;;;;;;;7.55;2.97;;;;;;;;;;5027349;28;20213;-60
2022/05/14 08:59:25;;;;;;;10.73;2.78;;;;;;;;;;5036195;28;20204;-60
2022/05/14 09:01:58;;;;;;;6.68;2.97;;;;;;;;;;5034795;28;20197;-60
2022/05/14 09:04:30;;;;;;;5.80;2.75;;;;;;;;;;5034949;28;20215;-60
2022/05/14 09:06:57;;;;;;;8.02;2.60;;;;;;;;;;5035275;28;20228;-59
2022/05/14 09:09:24;;;;;;;7.82;2.75;;;;;;;;;;5017381;28;20271;-60
2022/05/14 09:12:00;;;;;;;6.65;2.58;;;;;;;;;;5015956;28;20209;-59
2022/05/14 09:14:31;;;;;;;6.18;2.67;;;;;;;;;;5015927;28;20263;-59
2022/05/14 09:17:04;;;;;;;6.72;2.65;;;;;;;;;;5047386;28;20221;-59
2022/05/14 09:19:36;;;;;;;11.75;2.33;;;;;;;;;;5015644;28;20202;-60
2022/05/14 09:22:22;;;;;;;8.13;2.75;;;;;;;;;;5015757;28;20209;-60
2022/05/14 09:24:51;;;;;;;8.82;2.60;;;;;;;;;;5015608;28;20205;-61
2022/05/14 09:27:24;;;;;;;10.35;3.00;;;;;;;;;;5015468;28;20257;-60
2022/05/14 09:29:55;;;;;;;9.27;2.47;;;;;;;;;;5047317;28;20200;-59
2022/05/14 09:32:22;;;;;;;8.63;2.85;;;;;;;;;;5015515;28;20201;-60
2022/05/14 09:34:49;;;;;;;7.75;2.60;;;;;;;;;;5015356;28;20300;-60
2022/05/14 09:37:36;;;;;;;8.05;2.78;;;;;;;;;;5015463;28;20581;-59
2022/05/14 09:40:09;;;;;;;9.10;2.65;;;;;;;;;;5014364;28;20309;-59
2022/05/14 09:42:46;;;;;;;9.05;2.80;;;;;;;;;;5015830;28;20216;-60
2022/05/14 09:45:26;;;;;;;7.93;2.67;;;;;;;;;;5015617;28;20204;-60
2022/05/14 09:47:53;;;;;;;8.02;2.95;;;;;;;;;;5015196;28;20335;-57
2022/05/14 09:50:31;;;;;;;6.35;2.75;;;;;;;;;;5014174;28;20251;-60
2022/05/14 09:53:02;;;;;;;8.90;3.05;;;;;;;;;;5047040;28;20233;-59
2022/05/14 09:56:02;;;;;;;7.32;2.50;;;;;;;;;;5047053;28;20190;-60
2022/05/14 09:58:46;;;;;;;9.05;2.95;;;;;;;;;;5015284;28;20181;-59
2022/05/14 10:01:23;;;;;;;9.02;2.95;;;;;;;;;;5014813;28;20224;-59
2022/05/14 10:04:06;;;;;;;4.28;2.78;;;;;;;;;;5014967;28;20228;-60
2022/05/14 10:07:08;;;;;;;9.20;3.35;;;;;;;;;;5016501;28;20228;-59
2022/05/14 10:09:41;;;;;;;7.60;2.47;;;;;;;;;;5011132;28;20208;-60
2022/05/14 10:12:29;;;;;;;7.75;2.92;;;;;;;;;;5050960;28;20512;-60
2022/05/14 10:15:14;;;;;;;16.05;3.13;;;;;;;;;;5050874;28;20200;-60
2022/05/14 10:17:56;;;;;;;7.38;2.83;;;;;;;;;;5018843;28;20296;-59
2022/05/14 10:20:40;;;;;;;7.13;2.55;;;;;;;;;;5018600;28;20208;-59
2022/05/14 10:29:43;;;;;;;7.95;2.80;;;;;;;;;;5021871;28;20227;-57
2022/05/14 10:32:16;;;;;;;8.93;3.20;;;;;;;;;;5042067;28;20228;-56
2022/05/14 10:34:56;;;;;;;8.48;2.70;;;;;;;;;;5048012;28;20228;-56
2022/05/14 10:37:43;;;;;;;11.70;2.58;;;;;;;;;;5034736;28;20223;-55
2022/05/14 10:40:24;;;;;;;6.35;2.50;;;;;;;;;;5043376;28;20231;-57
2022/05/14 10:42:54;;;;;;;7.28;2.55;;;;;;;;;;5044977;28;20215;-58
2022/05/14 10:45:31;;;;;;;10.45;2.65;;;;;;;;;;5044337;28;20233;-56
2022/05/14 10:48:20;;;;;;;11.10;2.63;;;;;;;;;;5037246;28;20216;-56
2022/05/14 10:50:47;;;;;;;7.00;2.60;;;;;;;;;;5034599;28;20221;-56
2022/05/14 10:53:16;;;;;;;15.27;3.00;;;;;;;;;;5034701;28;20675;-56
2022/05/14 10:55:56;;;;;;;6.22;2.28;;;;;;;;;;5036545;28;20228;-56
2022/05/14 10:58:55;;;;;;;6.50;2.58;;;;;;;;;;5033894;28;20243;-55
2022/05/14 11:01:32;;;;;;;8.32;2.67;;;;;;;;;;5006494;28;20291;-53
2022/05/14 11:04:05;;;;;;;8.85;2.83;;;;;;;;;;5017093;28;20667;-50
2022/05/14 11:06:33;;;;;;;10.93;2.20;;;;;;;;;;5017268;28;20332;-52
2022/05/14 11:08:59;;;;;;;9.80;2.72;;;;;;;;;;5035871;28;20224;-57
2022/05/14 11:11:29;;;;;;;6.95;2.92;;;;;;;;;;5036808;28;20560;-59
2022/05/14 11:13:56;;;;;;;8.48;2.50;;;;;;;;;;5036514;28;20691;-55
2022/05/14 11:16:35;;;;;;;6.63;2.42;;;;;;;;;;5056550;28;20266;-56
2022/05/14 11:19:04;;;;;;;7.93;2.80;;;;;;;;;;5055850;28;20270;-58
2022/05/14 11:21:41;;;;;;;7.25;2.47;;;;;;;;;;5055612;28;20227;-59
2022/05/14 11:24:11;;;;;;;13.35;2.72;;;;;;;;;;5055695;28;20227;-60
2022/05/14 11:26:47;;;;;;;9.10;2.78;;;;;;;;;;5055467;28;20334;-59
2022/05/14 11:29:24;;;;;;;5.93;2.88;;;;;;;;;;5055750;28;20228;-60
2022/05/14 11:32:09;;;;;;;9.45;2.70;;;;;;;;;;5055911;28;20227;-61
2022/05/14 11:34:37;;;;;;;13.55;2.90;;;;;;;;;;5055533;28;20607;-59
2022/05/14 11:37:06;;;;;;;11.27;3.45;;;;;;;;;;5056349;28;20228;-59
2022/05/14 11:39:38;;;;;;;12.98;2.65;;;;;;;;;;5055798;28;20255;-57
2022/05/14 11:42:12;;;;;;;16.58;3.10;;;;;;;;;;5055789;28;20286;-58
2022/05/14 11:44:47;;;;;;;11.60;2.88;;;;;;;;;;5049013;28;20232;-57
2022/05/14 11:47:32;;;;;;;11.77;3.22;;;;;;;;;;5035357;28;20232;-58
2022/05/14 11:50:02;;;;;;;11.73;3.03;;;;;;;;;;5037467;28;20569;-59
2022/05/14 11:52:54;;;;;;;9.45;2.75;;;;;;;;;;5037105;28;20267;-59
2022/05/14 11:55:27;;;;;;;11.40;2.65;;;;;;;;;;5036964;28;20208;-59
2022/05/14 11:57:57;;;;;;;7.68;3.40;;;;;;;;;;5035666;28;20709;-59
2022/05/14 12:00:30;;;;;;;12.25;3.03;;;;;;;;;;5037221;28;20259;-59
2022/05/14 12:03:12;;;;;;;8.13;3.10;;;;;;;;;;5037123;28;20254;-59
2022/05/14 12:05:54;;;;;;;8.23;3.15;;;;;;;;;;5036655;28;20200;-59
2022/05/14 12:08:43;;;;;;;9.27;2.83;;;;;;;;;;5035785;28;20205;-59
2022/05/14 12:11:27;;;;;;;8.93;3.30;;;;;;;;;;5035479;28;20578;-59
2022/05/14 12:13:59;;;;;;;8.98;3.10;;;;;;;;;;5036415;28;20204;-59
2022/05/14 12:16:31;;;;;;;9.18;3.15;;;;;;;;;;5036686;28;20276;-59
2022/05/14 12:19:00;;;;;;;10.20;3.25;;;;;;;;;;5036366;28;20541;-59
2022/05/14 12:21:27;;;;;;;13.02;3.45;;;;;;;;;;5036339;28;20286;-60
2022/05/14 12:23:54;;;;;;;11.20;3.25;;;;;;;;;;5032969;28;20217;-59
2022/05/14 12:26:25;;;;;;;10.80;2.75;;;;;;;;;;5054682;28;20627;-57
2022/05/14 12:28:53;;;;;;;9.82;3.10;;;;;;;;;;5049255;28;20592;-57
2022/05/14 12:34:19;;;;;;;13.40;3.65;;;;;;;;;;5040932;28;20685;-58
2022/05/14 12:36:53;;;;;;;14.02;3.00;;;;;;;;;;5042336;28;20224;-57
2022/05/14 12:39:28;;;;;;;8.68;3.45;;;;;;;;;;5039165;28;20291;-60
2022/05/14 12:42:01;;;;;;;15.43;3.50;;;;;;;;;;5034313;28;20632;-59
2022/05/14 12:44:44;;;;;;;7.68;3.15;;;;;;;;;;5034035;28;20255;-59
2022/05/14 12:47:21;;;;;;;13.30;3.25;;;;;;;;;;5034382;28;20240;-56
2022/05/14 12:49:48;;;;;;;7.00;2.80;;;;;;;;;;5034059;28;20227;-56
2022/05/14 12:52:21;;;;;;;7.03;2.88;;;;;;;;;;5035276;28;20283;-54
2022/05/14 12:54:59;;;;;;;12.50;3.30;;;;;;;;;;5034724;28;20229;-57
2022/05/14 12:57:26;;;;;;;8.25;2.65;;;;;;;;;;5034999;28;20259;-56
2022/05/14 12:59:54;;;;;;;6.25;2.33;;;;;;;;;;5017532;28;20232;-56
2022/05/14 13:02:26;;;;;;;8.73;2.78;;;;;;;;;;5034715;28;20216;-58
2022/05/14 13:05:07;;;;;;;28.95;8.43;;;;;;;;;;5033632;28;20228;-55
2022/05/14 13:07:50;;;;;;;15.88;5.15;;;;;;;;;;5035475;28;20313;-54
2022/05/14 13:10:21;;;;;;;37.92;17.65;;;;;;;;;;5054775;28;20277;-56
2022/05/14 13:12:57;;;;;;;24.98;11.10;;;;;;;;;;5044284;28;20228;-56
2022/05/14 13:15:53;;;;;;;15.20;4.95;;;;;;;;;;5034660;28;20224;-53
2022/05/14 13:18:27;;;;;;;11.15;3.17;;;;;;;;;;5032728;28;20596;-59
2022/05/14 13:20:58;;;;;;;7.43;2.55;;;;;;;;;;5033431;28;20232;-58
2022/05/14 13:23:26;;;;;;;7.93;2.50;;;;;;;;;;5034108;28;20228;-56
2022/05/14 13:26:24;;;;;;;10.48;3.90;;;;;;;;;;5033849;28;20212;-55
2022/05/14 13:28:52;;;;;;;11.95;4.20;;;;;;;;;;5031274;28;20220;-56
2022/05/14 13:31:26;;;;;;;12.18;4.60;;;;;;;;;;5034569;28;20225;-57
2022/05/14 13:37:08;;;;;;;6.60;2.42;;;;;;;;;;5034321;28;20238;-52
2022/05/14 13:39:42;;;;;;;11.18;3.13;;;;;;;;;;5046469;28;20228;-58
2022/05/14 13:42:22;;;;;;;8.55;2.60;;;;;;;;;;5026322;28;20227;-60
2022/05/14 13:44:59;;;;;;;10.35;2.65;;;;;;;;;;5029553;28;20216;-59
2022/05/14 13:47:26;;;;;;;9.30;2.80;;;;;;;;;;5032709;28;20842;-58
2022/05/14 13:49:57;;;;;;;13.68;2.78;;;;;;;;;;5032686;28;20228;-58
2022/05/14 13:52:26;;;;;;;9.30;3.45;;;;;;;;;;5030133;28;20569;-57
2022/05/14 13:55:02;;;;;;;16.77;3.42;;;;;;;;;;5032740;28;20216;-59
2022/05/14 13:57:29;;;;;;;14.55;4.03;;;;;;;;;;5028141;28;20286;-58
2022/05/14 14:00:06;;;;;;;7.38;3.47;;;;;;;;;;5032524;28;20412;-59
2022/05/14 14:02:38;;;;;;;9.70;3.47;;;;;;;;;;5031213;28;20224;-59
2022/05/14 14:05:13;;;;;;;9.38;3.50;;;;;;;;;;5030297;28;20231;-59
2022/05/14 14:07:40;;;;;;;17.25;4.30;;;;;;;;;;5031307;28;20323;-58
2022/05/14 14:10:15;;;;;;;7.05;3.08;;;;;;;;;;5029958;28;20256;-57
2022/05/14 14:12:43;;;;;;;12.57;3.67;;;;;;;;;;5032277;28;20561;-54
2022/05/14 14:15:11;;;;;;;10.43;2.25;;;;;;;;;;5031795;28;20307;-59
2022/05/14 14:17:38;;;;;;;8.63;2.67;;;;;;;;;;5032155;28;20217;-56
2022/05/14 14:20:06;;;;;;;10.20;3.45;;;;;;;;;;5031031;28;20221;-54
2022/05/14 14:22:39;;;;;;;11.45;3.35;;;;;;;;;;5029979;28;20228;-58
2022/05/14 14:25:08;;;;;;;10.63;3.50;;;;;;;;;;5027341;28;20220;-57
2022/05/14 14:27:35;;;;;;;13.40;4.05;;;;;;;;;;5030421;28;20294;-56
2022/05/14 14:30:07;;;;;;;14.45;2.67;;;;;;;;;;5033582;28;20881;-59
2022/05/14 14:32:34;;;;;;;10.07;3.22;;;;;;;;;;5032617;28;20678;-58
2022/05/14 14:35:01;;;;;;;9.93;2.53;;;;;;;;;;5030965;28;20308;-51
2022/05/14 14:37:28;;;;;;;17.83;3.88;;;;;;;;;;5013210;28;20225;-58
2022/05/14 14:40:01;;;;;;;12.23;3.88;;;;;;;;;;5022291;28;20221;-53
2022/05/14 14:42:27;;;;;;;5.95;2.72;;;;;;;;;;5013923;28;20241;-55
2022/05/14 14:44:55;;;;;;;10.13;2.53;;;;;;;;;;5013802;28;20261;-57
2022/05/14 14:47:23;;;;;;;11.27;3.15;;;;;;;;;;5013908;28;20649;-56
2022/05/14 14:49:50;;;;;;;8.95;3.25;;;;;;;;;;5013895;28;20319;-55
2022/05/14 14:52:17;;;;;;;9.80;2.67;;;;;;;;;;5013413;28;20458;-54
2022/05/14 14:54:44;;;;;;;12.63;2.70;;;;;;;;;;5016517;28;20244;-54
2022/05/14 14:57:11;;;;;;;10.48;3.03;;;;;;;;;;5017466;28;20253;-55
2022/05/14 14:59:38;;;;;;;11.98;2.60;;;;;;;;;;5017234;28;20236;-54
2022/05/14 15:02:10;;;;;;;15.60;3.28;;;;;;;;;;5031772;28;20225;-52
2022/05/14 15:04:47;;;;;;;14.68;2.90;;;;;;;;;;5017389;28;20225;-55
2022/05/14 15:07:14;;;;;;;13.27;2.70;;;;;;;;;;5016862;28;20663;-54
2022/05/14 15:09:48;;;;;;;14.77;3.45;;;;;;;;;;5054755;28;20227;-54
2022/05/14 15:12:15;;;;;;;13.35;2.97;;;;;;;;;;5056118;28;20227;-52
2022/05/14 15:14:42;;;;;;;9.38;2.40;;;;;;;;;;5056926;28;20224;-55
2022/05/14 15:17:09;;;;;;;11.88;2.28;;;;;;;;;;5056561;28;20723;-51
2022/05/14 15:19:36;;;;;;;12.40;3.50;;;;;;;;;;5056481;28;20705;-52
2022/05/14 15:22:04;;;;;;;8.23;3.05;;;;;;;;;;5056353;28;20255;-52
2022/05/14 15:24:31;;;;;;;14.73;3.38;;;;;;;;;;5057195;28;20299;-56
2022/05/14 15:26:58;;;;;;;9.35;2.97;;;;;;;;;;5056540;28;20224;-56
2022/05/14 15:29:25;;;;;;;11.35;3.20;;;;;;;;;;5056723;28;20306;-54